sensor_id;sensor_type;location;lat;lon;timestamp;P1;durP1;ratioP1;P2;durP2;ratioP2
34645;SDS011;20857;47.808;12.482;2022-08-21T00:02:20;1.83;;;1.63;;
34645;SDS011;20857;47.808;12.482;2022-08-21T00:04:48;2.72;;;1.80;;
34645;SDS011;20857;47.808;12.482;2022-08-21T00:07:15;3.13;;;1.98;;
34645;SDS011;20857;47.808;12.482;2022-08-21T00:09:42;2.75;;;2.03;;
34645;SDS011;20857;47.808;12.482;2022-08-21T00:12:08;2.90;;;1.40;;
34645;SDS011;20857;47.808;12.482;2022-08-21T00:14:34;2.75;;;1.60;;
34645;SDS011;20857;47.808;12.482;2022-08-21T00:17:00;2.10;;;1.90;;
34645;SDS011;20857;47.808;12.482;2022-08-21T00:19:27;3.08;;;2.13;;
34645;SDS011;20857;47.808;12.482;2022-08-21T00:21:53;2.70;;;1.90;;
34645;SDS011;20857;47.808;12.482;2022-08-21T00:24:20;4.07;;;1.73;;
34645;SDS011;20857;47.808;12.482;2022-08-21T00:26:47;1.83;;;1.42;;
34645;SDS011;20857;47.808;12.482;2022-08-21T00:29:13;2.03;;;1.85;;
34645;SDS011;20857;47.808;12.482;2022-08-21T00:31:39;3.25;;;2.05;;
34645;SDS011;20857;47.808;12.482;2022-08-21T00:34:06;1.80;;;1.70;;
34645;SDS011;20857;47.808;12.482;2022-08-21T00:36:32;1.75;;;1.63;;
34645;SDS011;20857;47.808;12.482;2022-08-21T00:38:58;1.65;;;1.55;;
34645;SDS011;20857;47.808;12.482;2022-08-21T00:41:24;2.92;;;1.67;;
34645;SDS011;20857;47.808;12.482;2022-08-21T00:43:51;1.95;;;1.77;;
34645;SDS011;20857;47.808;12.482;2022-08-21T00:46:18;1.77;;;1.67;;
34645;SDS011;20857;47.808;12.482;2022-08-21T00:48:44;3.53;;;2.00;;
34645;SDS011;20857;47.808;12.482;2022-08-21T00:51:12;2.10;;;1.90;;
34645;SDS011;20857;47.808;12.482;2022-08-21T00:53:43;3.80;;;1.95;;
34645;SDS011;20857;47.808;12.482;2022-08-21T00:56:10;3.35;;;2.45;;
34645;SDS011;20857;47.808;12.482;2022-08-21T00:58:38;2.65;;;2.00;;
34645;SDS011;20857;47.808;12.482;2022-08-21T01:01:06;2.42;;;1.77;;
34645;SDS011;20857;47.808;12.482;2022-08-21T01:03:32;2.22;;;2.03;;
34645;SDS011;20857;47.808;12.482;2022-08-21T01:05:58;4.03;;;2.08;;
34645;SDS011;20857;47.808;12.482;2022-08-21T01:08:24;4.13;;;2.13;;
34645;SDS011;20857;47.808;12.482;2022-08-21T01:10:52;3.28;;;2.10;;
34645;SDS011;20857;47.808;12.482;2022-08-21T01:13:18;2.20;;;1.98;;
34645;SDS011;20857;47.808;12.482;2022-08-21T01:15:46;2.65;;;1.90;;
34645;SDS011;20857;47.808;12.482;2022-08-21T01:18:13;4.40;;;1.90;;
34645;SDS011;20857;47.808;12.482;2022-08-21T01:21:04;2.70;;;2.17;;
34645;SDS011;20857;47.808;12.482;2022-08-21T01:23:39;4.72;;;1.73;;
34645;SDS011;20857;47.808;12.482;2022-08-21T01:26:07;2.00;;;1.83;;
34645;SDS011;20857;47.808;12.482;2022-08-21T01:28:34;4.68;;;1.85;;
34645;SDS011;20857;47.808;12.482;2022-08-21T01:31:05;2.90;;;2.10;;
34645;SDS011;20857;47.808;12.482;2022-08-21T01:33:34;1.98;;;1.88;;
34645;SDS011;20857;47.808;12.482;2022-08-21T01:36:00;1.88;;;1.75;;
34645;SDS011;20857;47.808;12.482;2022-08-21T01:38:26;2.58;;;2.00;;
34645;SDS011;20857;47.808;12.482;2022-08-21T01:40:52;1.92;;;1.83;;
34645;SDS011;20857;47.808;12.482;2022-08-21T01:43:18;2.30;;;2.10;;
34645;SDS011;20857;47.808;12.482;2022-08-21T01:45:43;5.30;;;2.28;;
34645;SDS011;20857;47.808;12.482;2022-08-21T01:48:09;3.17;;;2.35;;
34645;SDS011;20857;47.808;12.482;2022-08-21T01:50:35;5.15;;;2.70;;
34645;SDS011;20857;47.808;12.482;2022-08-21T01:53:01;5.60;;;3.55;;
34645;SDS011;20857;47.808;12.482;2022-08-21T01:55:27;4.25;;;2.92;;
34645;SDS011;20857;47.808;12.482;2022-08-21T01:57:52;7.07;;;3.35;;
34645;SDS011;20857;47.808;12.482;2022-08-21T02:00:19;5.65;;;3.30;;
34645;SDS011;20857;47.808;12.482;2022-08-21T02:02:48;7.57;;;3.60;;
34645;SDS011;20857;47.808;12.482;2022-08-21T02:05:14;3.95;;;3.10;;
34645;SDS011;20857;47.808;12.482;2022-08-21T02:07:42;5.22;;;3.85;;
34645;SDS011;20857;47.808;12.482;2022-08-21T02:10:09;3.42;;;2.80;;
34645;SDS011;20857;47.808;12.482;2022-08-21T02:12:37;4.28;;;2.95;;
34645;SDS011;20857;47.808;12.482;2022-08-21T02:15:06;3.30;;;2.88;;
34645;SDS011;20857;47.808;12.482;2022-08-21T02:17:43;3.47;;;3.15;;
34645;SDS011;20857;47.808;12.482;2022-08-21T02:20:14;3.35;;;2.97;;
34645;SDS011;20857;47.808;12.482;2022-08-21T02:25:08;4.32;;;2.75;;
34645;SDS011;20857;47.808;12.482;2022-08-21T02:27:37;4.43;;;3.17;;
34645;SDS011;20857;47.808;12.482;2022-08-21T02:30:08;4.05;;;2.92;;
34645;SDS011;20857;47.808;12.482;2022-08-21T02:35:05;6.28;;;3.13;;
34645;SDS011;20857;47.808;12.482;2022-08-21T02:37:31;4.13;;;2.75;;
34645;SDS011;20857;47.808;12.482;2022-08-21T02:39:58;3.60;;;2.90;;
34645;SDS011;20857;47.808;12.482;2022-08-21T02:42:24;4.82;;;2.78;;
34645;SDS011;20857;47.808;12.482;2022-08-21T02:44:50;4.03;;;3.63;;
34645;SDS011;20857;47.808;12.482;2022-08-21T02:47:16;5.40;;;3.30;;
34645;SDS011;20857;47.808;12.482;2022-08-21T02:49:41;3.58;;;2.83;;
34645;SDS011;20857;47.808;12.482;2022-08-21T02:52:07;6.10;;;2.72;;
34645;SDS011;20857;47.808;12.482;2022-08-21T02:54:32;5.00;;;2.83;;
34645;SDS011;20857;47.808;12.482;2022-08-21T02:56:58;3.75;;;3.15;;
34645;SDS011;20857;47.808;12.482;2022-08-21T02:59:24;5.25;;;3.65;;
34645;SDS011;20857;47.808;12.482;2022-08-21T03:01:49;5.28;;;2.78;;
34645;SDS011;20857;47.808;12.482;2022-08-21T03:04:15;7.93;;;2.83;;
34645;SDS011;20857;47.808;12.482;2022-08-21T03:06:40;2.92;;;2.60;;
34645;SDS011;20857;47.808;12.482;2022-08-21T03:09:06;2.63;;;2.42;;
34645;SDS011;20857;47.808;12.482;2022-08-21T03:11:32;5.38;;;2.90;;
34645;SDS011;20857;47.808;12.482;2022-08-21T03:13:58;3.70;;;2.83;;
34645;SDS011;20857;47.808;12.482;2022-08-21T03:16:23;4.57;;;3.28;;
34645;SDS011;20857;47.808;12.482;2022-08-21T03:18:49;3.97;;;3.10;;
34645;SDS011;20857;47.808;12.482;2022-08-21T03:21:15;3.88;;;3.10;;
34645;SDS011;20857;47.808;12.482;2022-08-21T03:23:40;3.65;;;2.97;;
34645;SDS011;20857;47.808;12.482;2022-08-21T03:26:07;3.60;;;2.80;;
34645;SDS011;20857;47.808;12.482;2022-08-21T03:28:33;4.05;;;2.45;;
34645;SDS011;20857;47.808;12.482;2022-08-21T03:30:59;4.15;;;2.75;;
34645;SDS011;20857;47.808;12.482;2022-08-21T03:33:24;3.28;;;2.53;;
34645;SDS011;20857;47.808;12.482;2022-08-21T03:35:58;3.03;;;2.60;;
34645;SDS011;20857;47.808;12.482;2022-08-21T03:38:26;2.80;;;2.60;;
34645;SDS011;20857;47.808;12.482;2022-08-21T03:40:53;3.25;;;2.65;;
34645;SDS011;20857;47.808;12.482;2022-08-21T03:43:19;3.30;;;3.00;;
34645;SDS011;20857;47.808;12.482;2022-08-21T03:45:45;3.50;;;2.58;;
34645;SDS011;20857;47.808;12.482;2022-08-21T03:48:11;3.63;;;2.65;;
34645;SDS011;20857;47.808;12.482;2022-08-21T03:50:38;5.43;;;3.47;;
34645;SDS011;20857;47.808;12.482;2022-08-21T03:53:05;4.35;;;3.35;;
34645;SDS011;20857;47.808;12.482;2022-08-21T03:55:32;3.65;;;3.03;;
34645;SDS011;20857;47.808;12.482;2022-08-21T03:57:57;3.45;;;2.78;;
34645;SDS011;20857;47.808;12.482;2022-08-21T04:00:23;3.38;;;2.80;;
34645;SDS011;20857;47.808;12.482;2022-08-21T04:02:49;3.83;;;2.63;;
34645;SDS011;20857;47.808;12.482;2022-08-21T04:05:17;4.13;;;3.33;;
34645;SDS011;20857;47.808;12.482;2022-08-21T04:07:52;5.88;;;2.90;;
34645;SDS011;20857;47.808;12.482;2022-08-21T04:10:22;3.10;;;2.70;;
34645;SDS011;20857;47.808;12.482;2022-08-21T04:12:49;5.38;;;2.92;;
34645;SDS011;20857;47.808;12.482;2022-08-21T04:15:16;6.68;;;2.97;;
34645;SDS011;20857;47.808;12.482;2022-08-21T04:17:42;3.55;;;3.13;;
34645;SDS011;20857;47.808;12.482;2022-08-21T04:20:08;2.97;;;2.50;;
34645;SDS011;20857;47.808;12.482;2022-08-21T04:22:33;3.50;;;2.78;;
34645;SDS011;20857;47.808;12.482;2022-08-21T04:24:59;2.55;;;2.28;;
34645;SDS011;20857;47.808;12.482;2022-08-21T04:27:25;2.63;;;2.13;;
34645;SDS011;20857;47.808;12.482;2022-08-21T04:29:50;3.42;;;2.50;;
34645;SDS011;20857;47.808;12.482;2022-08-21T04:32:22;7.40;;;2.30;;
34645;SDS011;20857;47.808;12.482;2022-08-21T04:34:49;5.95;;;2.75;;
34645;SDS011;20857;47.808;12.482;2022-08-21T04:37:14;2.60;;;2.40;;
34645;SDS011;20857;47.808;12.482;2022-08-21T04:39:40;3.17;;;2.53;;
34645;SDS011;20857;47.808;12.482;2022-08-21T04:42:06;4.60;;;2.38;;
34645;SDS011;20857;47.808;12.482;2022-08-21T04:44:33;4.47;;;2.78;;
34645;SDS011;20857;47.808;12.482;2022-08-21T04:46:59;5.78;;;2.78;;
34645;SDS011;20857;47.808;12.482;2022-08-21T04:49:25;3.15;;;2.88;;
34645;SDS011;20857;47.808;12.482;2022-08-21T04:51:51;2.80;;;2.50;;
34645;SDS011;20857;47.808;12.482;2022-08-21T04:54:18;4.35;;;2.67;;
34645;SDS011;20857;47.808;12.482;2022-08-21T04:56:50;4.15;;;2.78;;
34645;SDS011;20857;47.808;12.482;2022-08-21T04:59:26;3.50;;;2.50;;
34645;SDS011;20857;47.808;12.482;2022-08-21T05:01:55;3.70;;;2.70;;
34645;SDS011;20857;47.808;12.482;2022-08-21T05:04:22;4.15;;;2.78;;
34645;SDS011;20857;47.808;12.482;2022-08-21T05:06:51;3.50;;;2.83;;
34645;SDS011;20857;47.808;12.482;2022-08-21T05:09:19;5.68;;;2.72;;
34645;SDS011;20857;47.808;12.482;2022-08-21T05:11:45;4.10;;;2.63;;
34645;SDS011;20857;47.808;12.482;2022-08-21T05:14:12;3.47;;;2.85;;
34645;SDS011;20857;47.808;12.482;2022-08-21T05:16:38;3.10;;;2.80;;
34645;SDS011;20857;47.808;12.482;2022-08-21T05:19:04;5.00;;;3.40;;
34645;SDS011;20857;47.808;12.482;2022-08-21T05:21:31;2.97;;;2.67;;
34645;SDS011;20857;47.808;12.482;2022-08-21T05:23:57;4.28;;;3.00;;
34645;SDS011;20857;47.808;12.482;2022-08-21T05:26:23;2.72;;;2.45;;
34645;SDS011;20857;47.808;12.482;2022-08-21T05:28:48;3.70;;;2.83;;
34645;SDS011;20857;47.808;12.482;2022-08-21T05:31:14;5.70;;;3.03;;
34645;SDS011;20857;47.808;12.482;2022-08-21T05:33:39;5.93;;;2.80;;
34645;SDS011;20857;47.808;12.482;2022-08-21T05:36:05;3.67;;;2.47;;
34645;SDS011;20857;47.808;12.482;2022-08-21T05:38:31;5.38;;;2.72;;
34645;SDS011;20857;47.808;12.482;2022-08-21T05:40:57;3.60;;;2.45;;
34645;SDS011;20857;47.808;12.482;2022-08-21T05:43:22;3.25;;;2.95;;
34645;SDS011;20857;47.808;12.482;2022-08-21T05:45:48;5.15;;;2.83;;
34645;SDS011;20857;47.808;12.482;2022-08-21T05:48:21;3.20;;;2.88;;
34645;SDS011;20857;47.808;12.482;2022-08-21T05:50:49;2.88;;;2.15;;
34645;SDS011;20857;47.808;12.482;2022-08-21T05:53:17;2.95;;;2.50;;
34645;SDS011;20857;47.808;12.482;2022-08-21T05:55:44;4.65;;;2.90;;
34645;SDS011;20857;47.808;12.482;2022-08-21T05:58:10;5.38;;;2.17;;
34645;SDS011;20857;47.808;12.482;2022-08-21T06:00:36;4.10;;;2.33;;
34645;SDS011;20857;47.808;12.482;2022-08-21T06:03:02;3.45;;;2.58;;
34645;SDS011;20857;47.808;12.482;2022-08-21T06:05:29;5.18;;;3.10;;
34645;SDS011;20857;47.808;12.482;2022-08-21T06:07:55;2.95;;;2.25;;
34645;SDS011;20857;47.808;12.482;2022-08-21T06:10:21;3.50;;;3.13;;
34645;SDS011;20857;47.808;12.482;2022-08-21T06:12:46;2.90;;;2.60;;
34645;SDS011;20857;47.808;12.482;2022-08-21T06:15:17;5.03;;;2.80;;
34645;SDS011;20857;47.808;12.482;2022-08-21T06:17:42;4.05;;;2.88;;
34645;SDS011;20857;47.808;12.482;2022-08-21T06:20:08;3.92;;;2.65;;
34645;SDS011;20857;47.808;12.482;2022-08-21T06:22:34;4.43;;;2.55;;
34645;SDS011;20857;47.808;12.482;2022-08-21T06:25:00;6.07;;;2.65;;
34645;SDS011;20857;47.808;12.482;2022-08-21T06:27:25;6.63;;;2.60;;
34645;SDS011;20857;47.808;12.482;2022-08-21T06:29:51;3.85;;;2.58;;
34645;SDS011;20857;47.808;12.482;2022-08-21T06:32:16;2.92;;;2.38;;
34645;SDS011;20857;47.808;12.482;2022-08-21T06:34:42;4.07;;;2.40;;
34645;SDS011;20857;47.808;12.482;2022-08-21T06:37:08;3.42;;;2.58;;
34645;SDS011;20857;47.808;12.482;2022-08-21T06:39:34;2.85;;;2.13;;
34645;SDS011;20857;47.808;12.482;2022-08-21T06:42:00;4.93;;;2.83;;
34645;SDS011;20857;47.808;12.482;2022-08-21T06:44:25;3.97;;;2.95;;
34645;SDS011;20857;47.808;12.482;2022-08-21T06:46:51;3.63;;;2.55;;
34645;SDS011;20857;47.808;12.482;2022-08-21T06:49:17;2.95;;;2.60;;
34645;SDS011;20857;47.808;12.482;2022-08-21T06:51:42;2.90;;;2.22;;
34645;SDS011;20857;47.808;12.482;2022-08-21T06:54:08;2.28;;;2.08;;
34645;SDS011;20857;47.808;12.482;2022-08-21T06:56:34;3.42;;;2.15;;
34645;SDS011;20857;47.808;12.482;2022-08-21T06:59:02;3.25;;;2.08;;
34645;SDS011;20857;47.808;12.482;2022-08-21T07:01:28;5.43;;;2.92;;
34645;SDS011;20857;47.808;12.482;2022-08-21T07:03:53;3.50;;;2.75;;
34645;SDS011;20857;47.808;12.482;2022-08-21T07:06:19;5.68;;;2.25;;
34645;SDS011;20857;47.808;12.482;2022-08-21T07:08:45;3.70;;;2.45;;
34645;SDS011;20857;47.808;12.482;2022-08-21T07:11:15;5.07;;;2.58;;
34645;SDS011;20857;47.808;12.482;2022-08-21T07:13:43;3.58;;;2.67;;
34645;SDS011;20857;47.808;12.482;2022-08-21T07:16:09;4.88;;;2.47;;
34645;SDS011;20857;47.808;12.482;2022-08-21T07:18:35;4.45;;;2.58;;
34645;SDS011;20857;47.808;12.482;2022-08-21T07:21:02;2.97;;;2.38;;
34645;SDS011;20857;47.808;12.482;2022-08-21T07:23:34;5.95;;;2.67;;
34645;SDS011;20857;47.808;12.482;2022-08-21T07:26:03;2.70;;;2.20;;
34645;SDS011;20857;47.808;12.482;2022-08-21T07:28:29;4.82;;;2.38;;
34645;SDS011;20857;47.808;12.482;2022-08-21T07:30:56;4.53;;;2.70;;
34645;SDS011;20857;47.808;12.482;2022-08-21T07:33:25;3.67;;;2.70;;
34645;SDS011;20857;47.808;12.482;2022-08-21T07:35:52;3.22;;;2.28;;
34645;SDS011;20857;47.808;12.482;2022-08-21T07:38:18;4.13;;;2.63;;
34645;SDS011;20857;47.808;12.482;2022-08-21T07:40:44;4.05;;;2.40;;
34645;SDS011;20857;47.808;12.482;2022-08-21T07:43:10;3.90;;;1.90;;
34645;SDS011;20857;47.808;12.482;2022-08-21T07:45:36;5.00;;;2.17;;
34645;SDS011;20857;47.808;12.482;2022-08-21T07:48:02;3.25;;;2.53;;
34645;SDS011;20857;47.808;12.482;2022-08-21T07:50:28;3.17;;;2.08;;
34645;SDS011;20857;47.808;12.482;2022-08-21T07:52:53;3.47;;;1.90;;
34645;SDS011;20857;47.808;12.482;2022-08-21T07:55:19;3.17;;;2.70;;
34645;SDS011;20857;47.808;12.482;2022-08-21T07:57:46;4.07;;;2.35;;
34645;SDS011;20857;47.808;12.482;2022-08-21T08:00:14;6.25;;;2.67;;
34645;SDS011;20857;47.808;12.482;2022-08-21T08:02:43;3.08;;;2.08;;
34645;SDS011;20857;47.808;12.482;2022-08-21T08:05:11;6.32;;;1.98;;
34645;SDS011;20857;47.808;12.482;2022-08-21T08:07:37;3.35;;;2.63;;
34645;SDS011;20857;47.808;12.482;2022-08-21T08:10:04;5.03;;;2.28;;
34645;SDS011;20857;47.808;12.482;2022-08-21T08:12:32;3.85;;;1.75;;
34645;SDS011;20857;47.808;12.482;2022-08-21T08:14:59;4.57;;;1.95;;
34645;SDS011;20857;47.808;12.482;2022-08-21T08:17:25;4.88;;;2.35;;
34645;SDS011;20857;47.808;12.482;2022-08-21T08:19:52;3.35;;;1.73;;
34645;SDS011;20857;47.808;12.482;2022-08-21T08:22:19;2.80;;;2.00;;
34645;SDS011;20857;47.808;12.482;2022-08-21T08:24:48;3.92;;;1.83;;
34645;SDS011;20857;47.808;12.482;2022-08-21T08:27:15;2.70;;;2.13;;
34645;SDS011;20857;47.808;12.482;2022-08-21T08:29:42;9.40;;;2.58;;
34645;SDS011;20857;47.808;12.482;2022-08-21T08:32:09;4.85;;;2.42;;
34645;SDS011;20857;47.808;12.482;2022-08-21T08:34:36;4.82;;;1.80;;
34645;SDS011;20857;47.808;12.482;2022-08-21T08:37:02;4.88;;;2.30;;
34645;SDS011;20857;47.808;12.482;2022-08-21T08:39:29;4.07;;;1.95;;
34645;SDS011;20857;47.808;12.482;2022-08-21T08:42:09;5.07;;;2.47;;
34645;SDS011;20857;47.808;12.482;2022-08-21T08:44:40;2.72;;;2.20;;
34645;SDS011;20857;47.808;12.482;2022-08-21T08:47:10;2.63;;;1.92;;
34645;SDS011;20857;47.808;12.482;2022-08-21T08:52:30;3.70;;;2.20;;
34645;SDS011;20857;47.808;12.482;2022-08-21T08:55:06;3.97;;;1.90;;
34645;SDS011;20857;47.808;12.482;2022-08-21T08:57:35;3.88;;;1.75;;
34645;SDS011;20857;47.808;12.482;2022-08-21T09:00:06;4.80;;;1.92;;
34645;SDS011;20857;47.808;12.482;2022-08-21T09:02:39;4.57;;;1.90;;
34645;SDS011;20857;47.808;12.482;2022-08-21T09:05:07;4.05;;;1.75;;
34645;SDS011;20857;47.808;12.482;2022-08-21T09:21:43;2.95;;;1.75;;
34645;SDS011;20857;47.808;12.482;2022-08-21T09:24:39;3.92;;;1.80;;
34645;SDS011;20857;47.808;12.482;2022-08-21T09:27:22;2.83;;;1.60;;
34645;SDS011;20857;47.808;12.482;2022-08-21T09:29:48;4.30;;;2.28;;
34645;SDS011;20857;47.808;12.482;2022-08-21T09:32:24;2.85;;;1.77;;
34645;SDS011;20857;47.808;12.482;2022-08-21T09:40:28;4.97;;;2.30;;
34645;SDS011;20857;47.808;12.482;2022-08-21T09:42:59;4.18;;;2.13;;
34645;SDS011;20857;47.808;12.482;2022-08-21T09:45:42;4.10;;;2.00;;
34645;SDS011;20857;47.808;12.482;2022-08-21T09:48:11;2.88;;;1.88;;
34645;SDS011;20857;47.808;12.482;2022-08-21T09:50:39;2.85;;;1.60;;
34645;SDS011;20857;47.808;12.482;2022-08-21T09:53:13;5.28;;;1.70;;
34645;SDS011;20857;47.808;12.482;2022-08-21T09:58:41;4.88;;;1.92;;
34645;SDS011;20857;47.808;12.482;2022-08-21T10:01:20;5.60;;;2.10;;
34645;SDS011;20857;47.808;12.482;2022-08-21T10:03:47;2.75;;;1.67;;
34645;SDS011;20857;47.808;12.482;2022-08-21T10:06:21;3.75;;;1.60;;
34645;SDS011;20857;47.808;12.482;2022-08-21T10:08:49;2.17;;;1.63;;
34645;SDS011;20857;47.808;12.482;2022-08-21T10:11:15;2.33;;;1.70;;
34645;SDS011;20857;47.808;12.482;2022-08-21T10:16:12;3.40;;;1.80;;
34645;SDS011;20857;47.808;12.482;2022-08-21T10:18:50;2.53;;;1.65;;
34645;SDS011;20857;47.808;12.482;2022-08-21T10:21:30;4.15;;;1.85;;
34645;SDS011;20857;47.808;12.482;2022-08-21T10:24:09;3.42;;;1.70;;
34645;SDS011;20857;47.808;12.482;2022-08-21T10:27:02;2.97;;;2.00;;
34645;SDS011;20857;47.808;12.482;2022-08-21T10:35:26;4.80;;;1.63;;
34645;SDS011;20857;47.808;12.482;2022-08-21T10:49:04;1.67;;;1.58;;
34645;SDS011;20857;47.808;12.482;2022-08-21T10:51:55;4.38;;;1.48;;
34645;SDS011;20857;47.808;12.482;2022-08-21T10:57:16;4.07;;;1.52;;
34645;SDS011;20857;47.808;12.482;2022-08-21T10:59:55;3.28;;;1.65;;
34645;SDS011;20857;47.808;12.482;2022-08-21T11:02:37;3.42;;;1.80;;
34645;SDS011;20857;47.808;12.482;2022-08-21T11:05:15;4.60;;;1.73;;
34645;SDS011;20857;47.808;12.482;2022-08-21T11:13:01;2.75;;;1.27;;
34645;SDS011;20857;47.808;12.482;2022-08-21T11:15:50;3.28;;;1.60;;
34645;SDS011;20857;47.808;12.482;2022-08-21T11:18:47;5.22;;;1.83;;
34645;SDS011;20857;47.808;12.482;2022-08-21T11:24:00;2.67;;;1.98;;
34645;SDS011;20857;47.808;12.482;2022-08-21T11:26:44;2.97;;;1.52;;
34645;SDS011;20857;47.808;12.482;2022-08-21T11:40:40;3.40;;;1.52;;
34645;SDS011;20857;47.808;12.482;2022-08-21T11:46:17;3.03;;;1.58;;
34645;SDS011;20857;47.808;12.482;2022-08-21T11:54:44;3.67;;;1.85;;
34645;SDS011;20857;47.808;12.482;2022-08-21T11:57:21;2.25;;;1.67;;
34645;SDS011;20857;47.808;12.482;2022-08-21T11:59:57;3.60;;;1.60;;
34645;SDS011;20857;47.808;12.482;2022-08-21T12:02:38;4.38;;;1.40;;
34645;SDS011;20857;47.808;12.482;2022-08-21T12:05:11;2.70;;;1.70;;
34645;SDS011;20857;47.808;12.482;2022-08-21T12:07:58;6.50;;;1.80;;
34645;SDS011;20857;47.808;12.482;2022-08-21T12:10:31;4.20;;;1.83;;
34645;SDS011;20857;47.808;12.482;2022-08-21T12:13:21;1.70;;;1.20;;
34645;SDS011;20857;47.808;12.482;2022-08-21T12:15:52;1.92;;;1.60;;
34645;SDS011;20857;47.808;12.482;2022-08-21T12:18:29;2.97;;;1.70;;
34645;SDS011;20857;47.808;12.482;2022-08-21T12:21:02;3.50;;;2.00;;
34645;SDS011;20857;47.808;12.482;2022-08-21T12:24:01;3.13;;;1.75;;
34645;SDS011;20857;47.808;12.482;2022-08-21T12:29:22;7.78;;;1.70;;
34645;SDS011;20857;47.808;12.482;2022-08-21T12:35:18;4.40;;;1.95;;
34645;SDS011;20857;47.808;12.482;2022-08-21T12:40:29;4.15;;;1.73;;
34645;SDS011;20857;47.808;12.482;2022-08-21T12:43:02;4.07;;;1.92;;
34645;SDS011;20857;47.808;12.482;2022-08-21T12:45:44;2.15;;;1.83;;
34645;SDS011;20857;47.808;12.482;2022-08-21T12:48:20;3.03;;;1.70;;
34645;SDS011;20857;47.808;12.482;2022-08-21T12:56:07;18.45;;;2.85;;
34645;SDS011;20857;47.808;12.482;2022-08-21T12:58:35;4.88;;;2.88;;
34645;SDS011;20857;47.808;12.482;2022-08-21T13:01:20;4.45;;;3.55;;
34645;SDS011;20857;47.808;12.482;2022-08-21T13:04:17;4.00;;;2.88;;
34645;SDS011;20857;47.808;12.482;2022-08-21T13:06:58;3.78;;;3.05;;
34645;SDS011;20857;47.808;12.482;2022-08-21T13:09:26;3.85;;;3.33;;
34645;SDS011;20857;47.808;12.482;2022-08-21T13:11:53;5.25;;;3.35;;
34645;SDS011;20857;47.808;12.482;2022-08-21T13:14:25;3.90;;;3.30;;
34645;SDS011;20857;47.808;12.482;2022-08-21T13:17:05;5.20;;;3.60;;
34645;SDS011;20857;47.808;12.482;2022-08-21T13:19:32;6.53;;;3.80;;
34645;SDS011;20857;47.808;12.482;2022-08-21T13:21:59;7.05;;;4.43;;
34645;SDS011;20857;47.808;12.482;2022-08-21T13:24:26;5.18;;;4.10;;
34645;SDS011;20857;47.808;12.482;2022-08-21T13:27:02;7.57;;;3.90;;
34645;SDS011;20857;47.808;12.482;2022-08-21T13:29:45;7.40;;;3.58;;
34645;SDS011;20857;47.808;12.482;2022-08-21T13:32:16;4.30;;;3.58;;
34645;SDS011;20857;47.808;12.482;2022-08-21T13:34:46;5.32;;;3.83;;
34645;SDS011;20857;47.808;12.482;2022-08-21T13:37:12;5.72;;;3.67;;
34645;SDS011;20857;47.808;12.482;2022-08-21T13:39:39;4.40;;;3.92;;
34645;SDS011;20857;47.808;12.482;2022-08-21T13:42:08;3.67;;;3.35;;
34645;SDS011;20857;47.808;12.482;2022-08-21T13:44:41;6.82;;;3.95;;
34645;SDS011;20857;47.808;12.482;2022-08-21T13:47:09;3.95;;;3.40;;
34645;SDS011;20857;47.808;12.482;2022-08-21T13:49:38;4.00;;;3.50;;
34645;SDS011;20857;47.808;12.482;2022-08-21T13:52:18;5.80;;;3.72;;
34645;SDS011;20857;47.808;12.482;2022-08-21T13:55:33;5.63;;;3.50;;
34645;SDS011;20857;47.808;12.482;2022-08-21T13:57:38;6.18;;;3.22;;
34645;SDS011;20857;47.808;12.482;2022-08-21T14:00:17;4.63;;;3.28;;
34645;SDS011;20857;47.808;12.482;2022-08-21T14:02:53;4.25;;;3.22;;
34645;SDS011;20857;47.808;12.482;2022-08-21T14:05:28;3.67;;;2.83;;
34645;SDS011;20857;47.808;12.482;2022-08-21T14:08:03;5.28;;;2.92;;
34645;SDS011;20857;47.808;12.482;2022-08-21T14:10:48;4.13;;;3.15;;
34645;SDS011;20857;47.808;12.482;2022-08-21T14:16:10;2.80;;;2.35;;
34645;SDS011;20857;47.808;12.482;2022-08-21T14:18:45;4.40;;;2.85;;
34645;SDS011;20857;47.808;12.482;2022-08-21T14:21:12;4.00;;;2.60;;
34645;SDS011;20857;47.808;12.482;2022-08-21T14:23:38;2.80;;;2.60;;
34645;SDS011;20857;47.808;12.482;2022-08-21T14:26:05;3.00;;;2.60;;
34645;SDS011;20857;47.808;12.482;2022-08-21T14:28:39;3.53;;;2.80;;
34645;SDS011;20857;47.808;12.482;2022-08-21T14:31:16;2.92;;;2.65;;
34645;SDS011;20857;47.808;12.482;2022-08-21T14:33:44;6.25;;;2.78;;
34645;SDS011;20857;47.808;12.482;2022-08-21T14:36:10;4.07;;;2.58;;
34645;SDS011;20857;47.808;12.482;2022-08-21T14:38:37;4.30;;;2.60;;
34645;SDS011;20857;47.808;12.482;2022-08-21T14:41:08;4.45;;;2.30;;
34645;SDS011;20857;47.808;12.482;2022-08-21T14:43:40;3.67;;;2.55;;
34645;SDS011;20857;47.808;12.482;2022-08-21T14:46:07;3.60;;;2.58;;
34645;SDS011;20857;47.808;12.482;2022-08-21T14:48:33;3.00;;;2.58;;
34645;SDS011;20857;47.808;12.482;2022-08-21T14:50:58;3.38;;;2.45;;
34645;SDS011;20857;47.808;12.482;2022-08-21T14:53:24;2.92;;;2.38;;
34645;SDS011;20857;47.808;12.482;2022-08-21T14:55:49;3.60;;;2.17;;
34645;SDS011;20857;47.808;12.482;2022-08-21T14:58:31;5.45;;;2.47;;
34645;SDS011;20857;47.808;12.482;2022-08-21T15:01:00;2.72;;;2.33;;
34645;SDS011;20857;47.808;12.482;2022-08-21T15:03:29;4.03;;;2.28;;
34645;SDS011;20857;47.808;12.482;2022-08-21T15:05:55;2.95;;;2.47;;
34645;SDS011;20857;47.808;12.482;2022-08-21T15:08:21;4.90;;;2.25;;
34645;SDS011;20857;47.808;12.482;2022-08-21T15:10:47;2.60;;;2.33;;
34645;SDS011;20857;47.808;12.482;2022-08-21T15:13:13;4.85;;;2.28;;
34645;SDS011;20857;47.808;12.482;2022-08-21T15:15:40;4.85;;;2.78;;
34645;SDS011;20857;47.808;12.482;2022-08-21T15:18:08;3.15;;;2.33;;
34645;SDS011;20857;47.808;12.482;2022-08-21T15:20:36;4.18;;;2.60;;
34645;SDS011;20857;47.808;12.482;2022-08-21T15:23:03;3.83;;;2.28;;
34645;SDS011;20857;47.808;12.482;2022-08-21T15:25:29;2.92;;;2.45;;
34645;SDS011;20857;47.808;12.482;2022-08-21T15:27:55;6.18;;;2.65;;
34645;SDS011;20857;47.808;12.482;2022-08-21T15:30:21;4.95;;;2.85;;
34645;SDS011;20857;47.808;12.482;2022-08-21T15:32:47;2.92;;;2.58;;
34645;SDS011;20857;47.808;12.482;2022-08-21T15:35:13;4.90;;;2.72;;
34645;SDS011;20857;47.808;12.482;2022-08-21T15:37:38;3.22;;;2.92;;
34645;SDS011;20857;47.808;12.482;2022-08-21T15:40:05;2.95;;;2.65;;
34645;SDS011;20857;47.808;12.482;2022-08-21T15:42:32;2.75;;;2.55;;
34645;SDS011;20857;47.808;12.482;2022-08-21T15:44:59;3.35;;;2.53;;
34645;SDS011;20857;47.808;12.482;2022-08-21T15:47:27;9.27;;;3.13;;
34645;SDS011;20857;47.808;12.482;2022-08-21T15:49:55;5.07;;;3.00;;
34645;SDS011;20857;47.808;12.482;2022-08-21T15:52:21;3.00;;;2.67;;
34645;SDS011;20857;47.808;12.482;2022-08-21T15:54:48;4.25;;;3.20;;
34645;SDS011;20857;47.808;12.482;2022-08-21T15:57:15;5.30;;;2.78;;
34645;SDS011;20857;47.808;12.482;2022-08-21T15:59:47;4.57;;;2.45;;
34645;SDS011;20857;47.808;12.482;2022-08-21T16:02:17;5.65;;;2.92;;
34645;SDS011;20857;47.808;12.482;2022-08-21T16:07:12;6.00;;;2.72;;
34645;SDS011;20857;47.808;12.482;2022-08-21T16:09:38;3.33;;;2.50;;
34645;SDS011;20857;47.808;12.482;2022-08-21T16:12:05;3.42;;;2.72;;
34645;SDS011;20857;47.808;12.482;2022-08-21T16:14:31;2.40;;;2.20;;
34645;SDS011;20857;47.808;12.482;2022-08-21T16:16:59;2.83;;;2.45;;
34645;SDS011;20857;47.808;12.482;2022-08-21T16:19:25;2.90;;;2.63;;
34645;SDS011;20857;47.808;12.482;2022-08-21T16:21:52;6.63;;;3.20;;
34645;SDS011;20857;47.808;12.482;2022-08-21T16:24:18;5.18;;;4.13;;
34645;SDS011;20857;47.808;12.482;2022-08-21T16:26:43;6.32;;;2.60;;